sensor_id;sensor_type;location;lat;lon;timestamp;P1;durP1;ratioP1;P2;durP2;ratioP2
6665;SDS011;3369;49.906;8.598;2023-01-05T00:01:35;0.70;;;0.70;;
6665;SDS011;3369;49.906;8.598;2023-01-05T00:04:01;0.70;;;0.63;;
6665;SDS011;3369;49.906;8.598;2023-01-05T00:06:27;0.70;;;0.70;;
6665;SDS011;3369;49.906;8.598;2023-01-05T00:08:53;0.60;;;0.60;;
6665;SDS011;3369;49.906;8.598;2023-01-05T00:11:22;0.60;;;0.60;;
6665;SDS011;3369;49.906;8.598;2023-01-05T00:14:12;0.63;;;0.63;;
6665;SDS011;3369;49.906;8.598;2023-01-05T00:16:58;0.70;;;0.70;;
6665;SDS011;3369;49.906;8.598;2023-01-05T00:19:42;0.80;;;0.80;;
6665;SDS011;3369;49.906;8.598;2023-01-05T00:22:26;1.47;;;0.90;;
6665;SDS011;3369;49.906;8.598;2023-01-05T00:24:59;1.53;;;0.90;;
6665;SDS011;3369;49.906;8.598;2023-01-05T00:27:26;0.97;;;0.90;;
6665;SDS011;3369;49.906;8.598;2023-01-05T00:29:53;0.80;;;0.80;;
6665;SDS011;3369;49.906;8.598;2023-01-05T00:32:18;0.70;;;0.70;;
6665;SDS011;3369;49.906;8.598;2023-01-05T00:34:44;1.30;;;0.70;;
6665;SDS011;3369;49.906;8.598;2023-01-05T00:37:10;0.70;;;0.70;;
6665;SDS011;3369;49.906;8.598;2023-01-05T00:39:36;0.70;;;0.70;;
6665;SDS011;3369;49.906;8.598;2023-01-05T00:42:02;1.77;;;0.60;;
6665;SDS011;3369;49.906;8.598;2023-01-05T00:44:27;0.80;;;0.80;;
6665;SDS011;3369;49.906;8.598;2023-01-05T00:46:53;0.70;;;0.70;;
6665;SDS011;3369;49.906;8.598;2023-01-05T00:49:19;0.70;;;0.70;;
6665;SDS011;3369;49.906;8.598;2023-01-05T00:51:44;0.70;;;0.70;;
6665;SDS011;3369;49.906;8.598;2023-01-05T00:54:10;0.70;;;0.70;;
6665;SDS011;3369;49.906;8.598;2023-01-05T00:56:36;0.60;;;0.60;;
6665;SDS011;3369;49.906;8.598;2023-01-05T00:59:01;0.60;;;0.60;;
6665;SDS011;3369;49.906;8.598;2023-01-05T01:01:27;0.50;;;0.50;;
6665;SDS011;3369;49.906;8.598;2023-01-05T01:03:53;0.50;;;0.50;;
6665;SDS011;3369;49.906;8.598;2023-01-05T01:06:19;0.53;;;0.53;;
6665;SDS011;3369;49.906;8.598;2023-01-05T01:08:45;0.40;;;0.40;;
6665;SDS011;3369;49.906;8.598;2023-01-05T01:11:11;0.50;;;0.50;;
6665;SDS011;3369;49.906;8.598;2023-01-05T01:13:37;0.60;;;0.60;;
6665;SDS011;3369;49.906;8.598;2023-01-05T01:16:06;0.93;;;0.50;;
6665;SDS011;3369;49.906;8.598;2023-01-05T01:18:33;0.57;;;0.57;;
6665;SDS011;3369;49.906;8.598;2023-01-05T01:20:59;0.60;;;0.60;;
6665;SDS011;3369;49.906;8.598;2023-01-05T01:23:25;0.47;;;0.47;;
6665;SDS011;3369;49.906;8.598;2023-01-05T01:25:51;0.50;;;0.50;;
6665;SDS011;3369;49.906;8.598;2023-01-05T01:28:17;0.53;;;0.53;;
6665;SDS011;3369;49.906;8.598;2023-01-05T01:30:42;0.50;;;0.50;;
6665;SDS011;3369;49.906;8.598;2023-01-05T01:33:08;0.53;;;0.53;;
6665;SDS011;3369;49.906;8.598;2023-01-05T01:35:35;1.20;;;0.60;;
6665;SDS011;3369;49.906;8.598;2023-01-05T01:38:01;0.80;;;0.50;;
6665;SDS011;3369;49.906;8.598;2023-01-05T01:40:27;0.50;;;0.50;;
6665;SDS011;3369;49.906;8.598;2023-01-05T01:42:53;0.50;;;0.50;;
6665;SDS011;3369;49.906;8.598;2023-01-05T01:45:22;0.50;;;0.50;;
6665;SDS011;3369;49.906;8.598;2023-01-05T01:52:51;0.83;;;0.50;;
6665;SDS011;3369;49.906;8.598;2023-01-05T01:55:25;0.53;;;0.53;;
6665;SDS011;3369;49.906;8.598;2023-01-05T01:57:52;0.50;;;0.50;;
6665;SDS011;3369;49.906;8.598;2023-01-05T02:00:18;0.50;;;0.50;;
6665;SDS011;3369;49.906;8.598;2023-01-05T02:02:46;0.57;;;0.57;;
6665;SDS011;3369;49.906;8.598;2023-01-05T02:05:13;0.60;;;0.60;;
6665;SDS011;3369;49.906;8.598;2023-01-05T02:07:42;0.60;;;0.60;;
6665;SDS011;3369;49.906;8.598;2023-01-05T02:10:10;0.80;;;0.80;;
6665;SDS011;3369;49.906;8.598;2023-01-05T02:12:38;0.67;;;0.60;;
6665;SDS011;3369;49.906;8.598;2023-01-05T02:39:33;1.40;;;0.60;;
6665;SDS011;3369;49.906;8.598;2023-01-05T02:42:01;0.80;;;0.77;;
6665;SDS011;3369;49.906;8.598;2023-01-05T02:44:39;0.67;;;0.67;;
6665;SDS011;3369;49.906;8.598;2023-01-05T02:47:06;1.43;;;0.70;;
6665;SDS011;3369;49.906;8.598;2023-01-05T02:49:57;0.57;;;0.57;;
6665;SDS011;3369;49.906;8.598;2023-01-05T02:52:26;0.70;;;0.60;;
6665;SDS011;3369;49.906;8.598;2023-01-05T02:55:02;0.50;;;0.50;;
6665;SDS011;3369;49.906;8.598;2023-01-05T02:57:33;2.43;;;0.70;;
6665;SDS011;3369;49.906;8.598;2023-01-05T03:03:06;2.53;;;1.20;;
6665;SDS011;3369;49.906;8.598;2023-01-05T03:05:38;3.70;;;0.63;;
6665;SDS011;3369;49.906;8.598;2023-01-05T03:08:07;4.20;;;0.90;;
6665;SDS011;3369;49.906;8.598;2023-01-05T03:10:49;3.70;;;0.90;;
6665;SDS011;3369;49.906;8.598;2023-01-05T03:13:47;5.30;;;1.63;;
6665;SDS011;3369;49.906;8.598;2023-01-05T03:16:25;4.37;;;1.57;;
6665;SDS011;3369;49.906;8.598;2023-01-05T03:18:54;5.97;;;1.40;;
6665;SDS011;3369;49.906;8.598;2023-01-05T03:21:41;7.23;;;1.60;;
6665;SDS011;3369;49.906;8.598;2023-01-05T03:24:27;5.23;;;1.50;;
6665;SDS011;3369;49.906;8.598;2023-01-05T03:27:11;8.73;;;1.67;;
6665;SDS011;3369;49.906;8.598;2023-01-05T03:29:56;3.90;;;1.40;;
6665;SDS011;3369;49.906;8.598;2023-01-05T03:32:51;8.17;;;1.60;;
6665;SDS011;3369;49.906;8.598;2023-01-05T03:35:41;4.53;;;1.47;;
6665;SDS011;3369;49.906;8.598;2023-01-05T03:40:40;6.30;;;1.50;;
6665;SDS011;3369;49.906;8.598;2023-01-05T03:43:08;10.57;;;2.77;;
6665;SDS011;3369;49.906;8.598;2023-01-05T03:45:35;6.77;;;1.77;;
6665;SDS011;3369;49.906;8.598;2023-01-05T03:48:07;6.10;;;1.77;;
6665;SDS011;3369;49.906;8.598;2023-01-05T03:50:33;4.60;;;1.43;;
6665;SDS011;3369;49.906;8.598;2023-01-05T03:52:59;6.53;;;1.80;;
6665;SDS011;3369;49.906;8.598;2023-01-05T03:55:25;3.60;;;1.67;;
6665;SDS011;3369;49.906;8.598;2023-01-05T03:57:50;3.17;;;1.53;;
6665;SDS011;3369;49.906;8.598;2023-01-05T04:00:16;8.07;;;1.97;;
6665;SDS011;3369;49.906;8.598;2023-01-05T04:02:42;7.33;;;1.90;;
6665;SDS011;3369;49.906;8.598;2023-01-05T04:05:07;6.67;;;1.93;;
6665;SDS011;3369;49.906;8.598;2023-01-05T04:07:33;7.47;;;1.87;;
6665;SDS011;3369;49.906;8.598;2023-01-05T04:09:59;10.53;;;2.27;;
6665;SDS011;3369;49.906;8.598;2023-01-05T04:12:25;7.40;;;1.93;;
6665;SDS011;3369;49.906;8.598;2023-01-05T04:14:51;7.90;;;2.00;;
6665;SDS011;3369;49.906;8.598;2023-01-05T04:17:16;13.33;;;2.37;;
6665;SDS011;3369;49.906;8.598;2023-01-05T04:19:42;9.03;;;2.43;;
6665;SDS011;3369;49.906;8.598;2023-01-05T04:22:07;14.83;;;2.33;;
6665;SDS011;3369;49.906;8.598;2023-01-05T04:24:33;10.57;;;2.70;;
6665;SDS011;3369;49.906;8.598;2023-01-05T04:26:59;8.67;;;2.47;;
6665;SDS011;3369;49.906;8.598;2023-01-05T04:29:24;11.20;;;2.63;;
6665;SDS011;3369;49.906;8.598;2023-01-05T04:31:50;11.30;;;2.00;;
6665;SDS011;3369;49.906;8.598;2023-01-05T04:34:15;8.77;;;1.90;;
6665;SDS011;3369;49.906;8.598;2023-01-05T04:36:41;9.90;;;2.47;;
6665;SDS011;3369;49.906;8.598;2023-01-05T04:39:07;7.67;;;2.43;;
6665;SDS011;3369;49.906;8.598;2023-01-05T04:41:32;6.27;;;2.43;;
6665;SDS011;3369;49.906;8.598;2023-01-05T04:43:58;4.77;;;1.53;;
6665;SDS011;3369;49.906;8.598;2023-01-05T04:46:23;10.87;;;2.10;;
6665;SDS011;3369;49.906;8.598;2023-01-05T04:48:49;7.77;;;2.03;;
6665;SDS011;3369;49.906;8.598;2023-01-05T04:51:15;11.33;;;2.57;;
6665;SDS011;3369;49.906;8.598;2023-01-05T04:53:40;6.87;;;2.43;;
6665;SDS011;3369;49.906;8.598;2023-01-05T04:56:06;8.07;;;2.50;;
6665;SDS011;3369;49.906;8.598;2023-01-05T04:58:32;8.60;;;1.80;;
6665;SDS011;3369;49.906;8.598;2023-01-05T05:00:57;7.03;;;2.03;;
6665;SDS011;3369;49.906;8.598;2023-01-05T05:03:23;6.10;;;2.40;;
6665;SDS011;3369;49.906;8.598;2023-01-05T05:05:48;3.83;;;1.77;;
6665;SDS011;3369;49.906;8.598;2023-01-05T05:08:14;6.10;;;2.20;;
6665;SDS011;3369;49.906;8.598;2023-01-05T05:10:39;9.00;;;2.37;;
6665;SDS011;3369;49.906;8.598;2023-01-05T05:13:05;5.80;;;2.30;;
6665;SDS011;3369;49.906;8.598;2023-01-05T05:15:31;4.47;;;1.53;;
6665;SDS011;3369;49.906;8.598;2023-01-05T05:17:56;5.77;;;2.13;;
6665;SDS011;3369;49.906;8.598;2023-01-05T05:20:22;9.80;;;2.20;;
6665;SDS011;3369;49.906;8.598;2023-01-05T05:22:47;9.97;;;1.93;;
6665;SDS011;3369;49.906;8.598;2023-01-05T05:25:13;8.13;;;1.93;;
6665;SDS011;3369;49.906;8.598;2023-01-05T05:27:39;4.87;;;2.07;;
6665;SDS011;3369;49.906;8.598;2023-01-05T05:30:04;6.43;;;1.50;;
6665;SDS011;3369;49.906;8.598;2023-01-05T05:32:30;8.67;;;2.23;;
6665;SDS011;3369;49.906;8.598;2023-01-05T05:34:56;4.60;;;2.00;;
6665;SDS011;3369;49.906;8.598;2023-01-05T05:37:22;8.87;;;1.80;;
6665;SDS011;3369;49.906;8.598;2023-01-05T05:39:47;9.60;;;2.33;;
6665;SDS011;3369;49.906;8.598;2023-01-05T05:42:13;8.87;;;2.43;;
6665;SDS011;3369;49.906;8.598;2023-01-05T05:44:38;6.13;;;2.23;;
6665;SDS011;3369;49.906;8.598;2023-01-05T05:47:04;4.83;;;1.80;;
6665;SDS011;3369;49.906;8.598;2023-01-05T05:49:30;6.63;;;1.70;;
6665;SDS011;3369;49.906;8.598;2023-01-05T05:51:55;7.60;;;2.03;;
6665;SDS011;3369;49.906;8.598;2023-01-05T05:54:21;6.13;;;2.10;;
6665;SDS011;3369;49.906;8.598;2023-01-05T05:56:47;8.67;;;2.23;;
6665;SDS011;3369;49.906;8.598;2023-01-05T05:59:12;7.57;;;1.93;;
6665;SDS011;3369;49.906;8.598;2023-01-05T06:01:38;5.73;;;2.07;;
6665;SDS011;3369;49.906;8.598;2023-01-05T06:04:04;10.30;;;2.47;;
6665;SDS011;3369;49.906;8.598;2023-01-05T06:06:29;6.60;;;1.80;;
6665;SDS011;3369;49.906;8.598;2023-01-05T06:08:55;9.10;;;1.93;;
6665;SDS011;3369;49.906;8.598;2023-01-05T06:11:20;8.47;;;2.03;;
6665;SDS011;3369;49.906;8.598;2023-01-05T06:13:46;8.63;;;2.00;;
6665;SDS011;3369;49.906;8.598;2023-01-05T06:16:14;9.90;;;2.33;;
6665;SDS011;3369;49.906;8.598;2023-01-05T06:18:40;6.43;;;1.50;;
6665;SDS011;3369;49.906;8.598;2023-01-05T06:21:06;8.90;;;2.50;;
6665;SDS011;3369;49.906;8.598;2023-01-05T06:23:33;7.50;;;2.33;;
6665;SDS011;3369;49.906;8.598;2023-01-05T06:25:58;10.73;;;3.07;;
6665;SDS011;3369;49.906;8.598;2023-01-05T06:28:24;8.33;;;2.53;;
6665;SDS011;3369;49.906;8.598;2023-01-05T06:30:49;7.17;;;2.27;;
6665;SDS011;3369;49.906;8.598;2023-01-05T06:33:15;10.37;;;2.47;;
6665;SDS011;3369;49.906;8.598;2023-01-05T06:35:41;9.43;;;2.70;;
6665;SDS011;3369;49.906;8.598;2023-01-05T06:38:06;9.10;;;2.10;;
6665;SDS011;3369;49.906;8.598;2023-01-05T06:40:32;9.00;;;1.93;;
6665;SDS011;3369;49.906;8.598;2023-01-05T06:42:58;8.03;;;2.50;;
6665;SDS011;3369;49.906;8.598;2023-01-05T06:45:23;7.40;;;2.03;;
6665;SDS011;3369;49.906;8.598;2023-01-05T06:47:49;7.10;;;2.40;;
6665;SDS011;3369;49.906;8.598;2023-01-05T06:50:14;4.93;;;1.97;;
6665;SDS011;3369;49.906;8.598;2023-01-05T06:52:40;4.80;;;1.70;;
6665;SDS011;3369;49.906;8.598;2023-01-05T06:55:06;6.20;;;2.00;;
6665;SDS011;3369;49.906;8.598;2023-01-05T06:57:34;6.77;;;2.00;;
6665;SDS011;3369;49.906;8.598;2023-01-05T07:00:01;9.47;;;2.87;;
6665;SDS011;3369;49.906;8.598;2023-01-05T07:02:28;8.75;;;2.40;;
6665;SDS011;3369;49.906;8.598;2023-01-05T07:04:54;5.60;;;1.93;;
6665;SDS011;3369;49.906;8.598;2023-01-05T07:07:19;6.70;;;1.60;;
6665;SDS011;3369;49.906;8.598;2023-01-05T07:09:45;4.03;;;1.63;;
6665;SDS011;3369;49.906;8.598;2023-01-05T07:12:13;7.30;;;1.67;;
6665;SDS011;3369;49.906;8.598;2023-01-05T07:14:39;6.93;;;1.63;;
6665;SDS011;3369;49.906;8.598;2023-01-05T07:17:05;6.67;;;2.43;;
6665;SDS011;3369;49.906;8.598;2023-01-05T07:19:30;8.40;;;1.70;;
6665;SDS011;3369;49.906;8.598;2023-01-05T07:21:56;6.67;;;1.60;;
6665;SDS011;3369;49.906;8.598;2023-01-05T07:24:22;7.57;;;1.80;;
6665;SDS011;3369;49.906;8.598;2023-01-05T07:26:48;10.30;;;2.40;;
6665;SDS011;3369;49.906;8.598;2023-01-05T07:29:14;6.67;;;2.23;;
6665;SDS011;3369;49.906;8.598;2023-01-05T07:31:40;7.67;;;1.50;;
6665;SDS011;3369;49.906;8.598;2023-01-05T07:34:07;5.47;;;2.07;;
6665;SDS011;3369;49.906;8.598;2023-01-05T07:36:33;7.93;;;2.00;;
6665;SDS011;3369;49.906;8.598;2023-01-05T07:38:59;3.53;;;1.30;;
6665;SDS011;3369;49.906;8.598;2023-01-05T07:41:24;5.67;;;1.57;;
6665;SDS011;3369;49.906;8.598;2023-01-05T07:43:50;6.73;;;1.80;;
6665;SDS011;3369;49.906;8.598;2023-01-05T07:46:15;5.73;;;1.40;;
6665;SDS011;3369;49.906;8.598;2023-01-05T07:48:41;6.40;;;1.50;;
6665;SDS011;3369;49.906;8.598;2023-01-05T07:51:08;7.13;;;1.53;;
6665;SDS011;3369;49.906;8.598;2023-01-05T07:53:34;4.27;;;1.17;;
6665;SDS011;3369;49.906;8.598;2023-01-05T07:56:03;7.77;;;2.00;;
6665;SDS011;3369;49.906;8.598;2023-01-05T07:58:30;6.97;;;1.93;;
6665;SDS011;3369;49.906;8.598;2023-01-05T08:00:56;6.57;;;1.90;;
6665;SDS011;3369;49.906;8.598;2023-01-05T08:03:26;10.33;;;1.90;;
6665;SDS011;3369;49.906;8.598;2023-01-05T08:05:51;12.63;;;2.13;;
6665;SDS011;3369;49.906;8.598;2023-01-05T08:08:17;8.20;;;2.07;;
6665;SDS011;3369;49.906;8.598;2023-01-05T08:10:43;3.97;;;1.97;;
6665;SDS011;3369;49.906;8.598;2023-01-05T08:13:09;7.73;;;1.97;;
6665;SDS011;3369;49.906;8.598;2023-01-05T08:15:54;3.73;;;1.60;;
6665;SDS011;3369;49.906;8.598;2023-01-05T08:18:20;9.27;;;1.80;;
6665;SDS011;3369;49.906;8.598;2023-01-05T08:20:53;8.70;;;2.80;;
6665;SDS011;3369;49.906;8.598;2023-01-05T08:23:21;9.23;;;1.97;;
6665;SDS011;3369;49.906;8.598;2023-01-05T08:25:48;4.87;;;1.50;;
6665;SDS011;3369;49.906;8.598;2023-01-05T08:28:14;8.07;;;1.80;;
6665;SDS011;3369;49.906;8.598;2023-01-05T08:30:39;4.93;;;1.80;;
6665;SDS011;3369;49.906;8.598;2023-01-05T08:33:05;3.53;;;1.60;;
6665;SDS011;3369;49.906;8.598;2023-01-05T08:35:31;6.60;;;2.33;;
6665;SDS011;3369;49.906;8.598;2023-01-05T08:37:57;8.50;;;2.07;;
6665;SDS011;3369;49.906;8.598;2023-01-05T08:40:22;7.23;;;2.03;;
6665;SDS011;3369;49.906;8.598;2023-01-05T08:42:51;8.10;;;2.37;;
6665;SDS011;3369;49.906;8.598;2023-01-05T08:45:17;7.23;;;1.60;;
6665;SDS011;3369;49.906;8.598;2023-01-05T08:47:42;5.43;;;1.97;;
6665;SDS011;3369;49.906;8.598;2023-01-05T08:50:08;11.13;;;2.00;;
6665;SDS011;3369;49.906;8.598;2023-01-05T08:52:36;10.10;;;2.40;;
6665;SDS011;3369;49.906;8.598;2023-01-05T08:55:02;10.03;;;1.90;;
6665;SDS011;3369;49.906;8.598;2023-01-05T08:57:29;8.10;;;2.40;;
6665;SDS011;3369;49.906;8.598;2023-01-05T08:59:55;7.90;;;2.87;;
6665;SDS011;3369;49.906;8.598;2023-01-05T09:02:21;6.10;;;2.40;;
6665;SDS011;3369;49.906;8.598;2023-01-05T09:04:46;8.33;;;2.17;;
6665;SDS011;3369;49.906;8.598;2023-01-05T09:07:12;11.03;;;2.77;;
6665;SDS011;3369;49.906;8.598;2023-01-05T09:09:38;9.17;;;3.13;;
6665;SDS011;3369;49.906;8.598;2023-01-05T09:12:03;11.23;;;2.30;;
6665;SDS011;3369;49.906;8.598;2023-01-05T09:14:29;10.23;;;2.73;;
6665;SDS011;3369;49.906;8.598;2023-01-05T09:16:55;11.40;;;2.53;;
6665;SDS011;3369;49.906;8.598;2023-01-05T09:19:21;8.13;;;2.17;;
6665;SDS011;3369;49.906;8.598;2023-01-05T09:21:46;10.47;;;2.47;;
6665;SDS011;3369;49.906;8.598;2023-01-05T09:24:12;4.73;;;2.00;;
6665;SDS011;3369;49.906;8.598;2023-01-05T09:26:38;6.93;;;2.00;;
6665;SDS011;3369;49.906;8.598;2023-01-05T09:29:05;6.47;;;1.90;;
6665;SDS011;3369;49.906;8.598;2023-01-05T09:31:30;7.53;;;1.70;;
6665;SDS011;3369;49.906;8.598;2023-01-05T09:33:56;5.27;;;1.87;;
6665;SDS011;3369;49.906;8.598;2023-01-05T09:36:22;9.77;;;2.60;;
6665;SDS011;3369;49.906;8.598;2023-01-05T09:38:53;8.23;;;2.00;;
6665;SDS011;3369;49.906;8.598;2023-01-05T09:41:21;10.23;;;2.30;;
6665;SDS011;3369;49.906;8.598;2023-01-05T09:43:57;9.37;;;2.33;;
6665;SDS011;3369;49.906;8.598;2023-01-05T09:46:42;5.90;;;1.90;;
6665;SDS011;3369;49.906;8.598;2023-01-05T09:49:13;5.33;;;1.77;;
6665;SDS011;3369;49.906;8.598;2023-01-05T09:51:40;4.73;;;1.80;;
6665;SDS011;3369;49.906;8.598;2023-01-05T09:54:10;3.07;;;1.50;;
6665;SDS011;3369;49.906;8.598;2023-01-05T09:56:41;5.20;;;1.77;;
6665;SDS011;3369;49.906;8.598;2023-01-05T09:59:15;2.83;;;1.47;;
6665;SDS011;3369;49.906;8.598;2023-01-05T10:01:53;5.87;;;2.43;;
6665;SDS011;3369;49.906;8.598;2023-01-05T10:04:23;6.60;;;1.80;;
6665;SDS011;3369;49.906;8.598;2023-01-05T10:06:56;9.03;;;1.97;;
6665;SDS011;3369;49.906;8.598;2023-01-05T10:09:32;9.20;;;2.50;;
6665;SDS011;3369;49.906;8.598;2023-01-05T10:15:18;10.23;;;2.30;;
6665;SDS011;3369;49.906;8.598;2023-01-05T10:17:45;15.80;;;2.93;;
6665;SDS011;3369;49.906;8.598;2023-01-05T10:22:59;12.97;;;2.50;;
6665;SDS011;3369;49.906;8.598;2023-01-05T10:25:41;13.17;;;3.27;;
6665;SDS011;3369;49.906;8.598;2023-01-05T10:28:45;7.60;;;2.47;;
6665;SDS011;3369;49.906;8.598;2023-01-05T10:31:25;8.10;;;2.30;;
6665;SDS011;3369;49.906;8.598;2023-01-05T10:34:21;7.63;;;2.30;;
6665;SDS011;3369;49.906;8.598;2023-01-05T10:42:21;9.53;;;2.63;;
6665;SDS011;3369;49.906;8.598;2023-01-05T10:44:55;12.10;;;2.50;;
6665;SDS011;3369;49.906;8.598;2023-01-05T10:47:27;9.07;;;2.53;;
6665;SDS011;3369;49.906;8.598;2023-01-05T10:49:55;9.77;;;2.23;;
6665;SDS011;3369;49.906;8.598;2023-01-05T10:52:23;8.00;;;2.50;;
6665;SDS011;3369;49.906;8.598;2023-01-05T10:54:50;8.50;;;2.23;;
6665;SDS011;3369;49.906;8.598;2023-01-05T11:02:38;11.30;;;2.63;;
6665;SDS011;3369;49.906;8.598;2023-01-05T11:05:17;9.80;;;3.20;;
6665;SDS011;3369;49.906;8.598;2023-01-05T11:07:52;12.93;;;2.60;;
6665;SDS011;3369;49.906;8.598;2023-01-05T11:12:53;9.03;;;2.27;;
6665;SDS011;3369;49.906;8.598;2023-01-05T11:15:39;12.73;;;2.83;;
6665;SDS011;3369;49.906;8.598;2023-01-05T11:21:04;14.77;;;2.87;;
6665;SDS011;3369;49.906;8.598;2023-01-05T11:23:42;10.03;;;3.00;;
6665;SDS011;3369;49.906;8.598;2023-01-05T11:29:02;9.03;;;2.70;;
6665;SDS011;3369;49.906;8.598;2023-01-05T11:31:37;9.07;;;2.77;;
6665;SDS011;3369;49.906;8.598;2023-01-05T11:36:53;9.13;;;2.40;;
6665;SDS011;3369;49.906;8.598;2023-01-05T11:42:04;10.10;;;2.87;;
6665;SDS011;3369;49.906;8.598;2023-01-05T11:44:35;11.70;;;2.93;;
6665;SDS011;3369;49.906;8.598;2023-01-05T11:47:03;10.03;;;2.90;;
6665;SDS011;3369;49.906;8.598;2023-01-05T11:49:30;13.23;;;3.87;;
6665;SDS011;3369;49.906;8.598;2023-01-05T11:51:56;14.77;;;3.10;;
6665;SDS011;3369;49.906;8.598;2023-01-05T11:57:17;13.30;;;2.87;;
6665;SDS011;3369;49.906;8.598;2023-01-05T11:59:46;11.60;;;2.90;;
6665;SDS011;3369;49.906;8.598;2023-01-05T12:05:22;9.77;;;2.27;;
6665;SDS011;3369;49.906;8.598;2023-01-05T12:08:29;9.17;;;2.33;;
6665;SDS011;3369;49.906;8.598;2023-01-05T12:11:26;9.50;;;2.57;;
6665;SDS011;3369;49.906;8.598;2023-01-05T12:28:01;9.27;;;2.40;;
6665;SDS011;3369;49.906;8.598;2023-01-05T12:30:28;11.97;;;2.70;;
6665;SDS011;3369;49.906;8.598;2023-01-05T12:36:08;11.97;;;2.77;;
6665;SDS011;3369;49.906;8.598;2023-01-05T12:41:35;14.20;;;3.77;;
6665;SDS011;3369;49.906;8.598;2023-01-05T12:46:45;12.50;;;3.27;;
6665;SDS011;3369;49.906;8.598;2023-01-05T12:49:29;9.03;;;2.60;;
6665;SDS011;3369;49.906;8.598;2023-01-05T12:52:12;14.43;;;3.00;;
6665;SDS011;3369;49.906;8.598;2023-01-05T12:57:22;9.30;;;2.50;;
6665;SDS011;3369;49.906;8.598;2023-01-05T13:02:36;15.03;;;3.50;;
6665;SDS011;3369;49.906;8.598;2023-01-05T13:08:16;8.33;;;2.17;;
6665;SDS011;3369;49.906;8.598;2023-01-05T13:10:50;12.30;;;2.77;;
6665;SDS011;3369;49.906;8.598;2023-01-05T13:13:39;14.43;;;2.90;;
6665;SDS011;3369;49.906;8.598;2023-01-05T13:16:12;13.33;;;3.03;;
6665;SDS011;3369;49.906;8.598;2023-01-05T13:18:52;12.60;;;3.07;;
6665;SDS011;3369;49.906;8.598;2023-01-05T13:21:23;11.50;;;2.27;;
6665;SDS011;3369;49.906;8.598;2023-01-05T13:23:52;11.00;;;2.97;;
6665;SDS011;3369;49.906;8.598;2023-01-05T13:26:26;13.80;;;3.77;;
6665;SDS011;3369;49.906;8.598;2023-01-05T13:28:52;14.23;;;3.43;;
6665;SDS011;3369;49.906;8.598;2023-01-05T13:32:08;11.43;;;2.43;;
6665;SDS011;3369;49.906;8.598;2023-01-05T13:40:09;9.83;;;2.57;;
6665;SDS011;3369;49.906;8.598;2023-01-05T13:54:13;12.90;;;2.53;;
6665;SDS011;3369;49.906;8.598;2023-01-05T13:56:44;8.20;;;2.60;;
6665;SDS011;3369;49.906;8.598;2023-01-05T13:59:26;10.43;;;2.57;;
6665;SDS011;3369;49.906;8.598;2023-01-05T14:01:54;9.30;;;2.57;;
6665;SDS011;3369;49.906;8.598;2023-01-05T14:04:23;9.60;;;2.20;;
6665;SDS011;3369;49.906;8.598;2023-01-05T14:06:53;12.43;;;3.37;;
6665;SDS011;3369;49.906;8.598;2023-01-05T14:15:02;8.97;;;2.70;;
6665;SDS011;3369;49.906;8.598;2023-01-05T14:30:53;10.87;;;2.33;;
6665;SDS011;3369;49.906;8.598;2023-01-05T14:57:55;8.17;;;3.10;;
6665;SDS011;3369;49.906;8.598;2023-01-05T15:00:29;12.17;;;3.00;;
6665;SDS011;3369;49.906;8.598;2023-01-05T15:06:06;6.77;;;2.67;;
6665;SDS011;3369;49.906;8.598;2023-01-05T15:33:49;10.77;;;2.80;;
6665;SDS011;3369;49.906;8.598;2023-01-05T15:36:52;7.50;;;2.57;;
6665;SDS011;3369;49.906;8.598;2023-01-05T15:39:44;8.70;;;2.93;;
6665;SDS011;3369;49.906;8.598;2023-01-05T15:42:25;10.90;;;3.80;;
6665;SDS011;3369;49.906;8.598;2023-01-05T15:44:55;10.57;;;2.97;;
6665;SDS011;3369;49.906;8.598;2023-01-05T15:47:22;11.90;;;3.13;;
6665;SDS011;3369;49.906;8.598;2023-01-05T15:49:49;11.27;;;3.47;;
6665;SDS011;3369;49.906;8.598;2023-01-05T15:52:20;10.50;;;2.40;;
6665;SDS011;3369;49.906;8.598;2023-01-05T15:55:02;10.83;;;2.77;;
6665;SDS011;3369;49.906;8.598;2023-01-05T15:57:34;8.90;;;2.60;;
6665;SDS011;3369;49.906;8.598;2023-01-05T16:00:00;7.77;;;2.50;;
6665;SDS011;3369;49.906;8.598;2023-01-05T16:02:27;16.77;;;2.97;;
6665;SDS011;3369;49.906;8.598;2023-01-05T16:05:06;10.23;;;2.93;;
6665;SDS011;3369;49.906;8.598;2023-01-05T16:07:53;8.33;;;2.30;;
6665;SDS011;3369;49.906;8.598;2023-01-05T16:13:02;12.53;;;3.10;;
6665;SDS011;3369;49.906;8.598;2023-01-05T16:15:42;9.63;;;2.50;;
6665;SDS011;3369;49.906;8.598;2023-01-05T16:18:14;12.83;;;3.10;;
6665;SDS011;3369;49.906;8.598;2023-01-05T16:20:44;13.27;;;3.37;;
6665;SDS011;3369;49.906;8.598;2023-01-05T16:23:19;10.70;;;3.40;;
6665;SDS011;3369;49.906;8.598;2023-01-05T16:25:49;6.13;;;2.70;;
6665;SDS011;3369;49.906;8.598;2023-01-05T16:28:18;7.53;;;3.23;;
6665;SDS011;3369;49.906;8.598;2023-01-05T16:30:46;7.70;;;2.80;;
6665;SDS011;3369;49.906;8.598;2023-01-05T16:43:56;8.73;;;3.00;;
6665;SDS011;3369;49.906;8.598;2023-01-05T16:48:49;6.23;;;3.20;;
6665;SDS011;3369;49.906;8.598;2023-01-05T16:51:16;11.50;;;2.70;;
6665;SDS011;3369;49.906;8.598;2023-01-05T16:54:04;11.90;;;3.63;;
6665;SDS011;3369;49.906;8.598;2023-01-05T17:00:16;11.93;;;4.37;;
6665;SDS011;3369;49.906;8.598;2023-01-05T17:05:03;17.20;;;6.37;;
6665;SDS011;3369;49.906;8.598;2023-01-05T17:07:30;11.87;;;4.23;;
6665;SDS011;3369;49.906;8.598;2023-01-05T17:09:57;10.03;;;3.27;;
6665;SDS011;3369;49.906;8.598;2023-01-05T17:12:23;14.40;;;3.47;;
6665;SDS011;3369;49.906;8.598;2023-01-05T17:14:49;11.03;;;3.30;;
6665;SDS011;3369;49.906;8.598;2023-01-05T17:17:15;9.93;;;2.93;;
6665;SDS011;3369;49.906;8.598;2023-01-05T17:19:40;12.23;;;3.10;;
6665;SDS011;3369;49.906;8.598;2023-01-05T17:22:06;12.67;;;3.07;;
6665;SDS011;3369;49.906;8.598;2023-01-05T17:24:33;8.47;;;2.93;;
6665;SDS011;3369;49.906;8.598;2023-01-05T17:26:59;10.40;;;2.73;;
6665;SDS011;3369;49.906;8.598;2023-01-05T17:29:26;8.07;;;2.90;;
6665;SDS011;3369;49.906;8.598;2023-01-05T17:31:54;8.65;;;3.22;;
6665;SDS011;3369;49.906;8.598;2023-01-05T17:34:20;8.98;;;3.17;;
6665;SDS011;3369;49.906;8.598;2023-01-05T17:36:47;11.85;;;3.85;;
6665;SDS011;3369;49.906;8.598;2023-01-05T17:39:15;12.82;;;4.00;;
6665;SDS011;3369;49.906;8.598;2023-01-05T17:41:42;8.90;;;3.60;;
6665;SDS011;3369;49.906;8.598;2023-01-05T17:44:08;16.95;;;4.55;;
6665;SDS011;3369;49.906;8.598;2023-01-05T17:46:35;12.73;;;4.65;;
6665;SDS011;3369;49.906;8.598;2023-01-05T17:49:04;13.82;;;4.03;;
6665;SDS011;3369;49.906;8.598;2023-01-05T17:51:30;12.45;;;4.00;;
6665;SDS011;3369;49.906;8.598;2023-01-05T17:53:56;10.37;;;3.33;;
6665;SDS011;3369;49.906;8.598;2023-01-05T17:56:23;8.57;;;3.42;;
6665;SDS011;3369;49.906;8.598;2023-01-05T17:58:49;16.17;;;4.10;;
6665;SDS011;3369;49.906;8.598;2023-01-05T18:01:15;9.97;;;3.50;;
6665;SDS011;3369;49.906;8.598;2023-01-05T18:03:41;9.23;;;3.27;;
6665;SDS011;3369;49.906;8.598;2023-01-05T18:06:06;13.37;;;4.23;;
6665;SDS011;3369;49.906;8.598;2023-01-05T18:08:33;13.77;;;3.90;;
6665;SDS011;3369;49.906;8.598;2023-01-05T18:11:00;12.15;;;3.60;;
6665;SDS011;3369;49.906;8.598;2023-01-05T18:13:27;15.50;;;4.65;;
6665;SDS011;3369;49.906;8.598;2023-01-05T18:15:54;15.27;;;4.57;;
6665;SDS011;3369;49.906;8.598;2023-01-05T18:18:20;11.97;;;3.97;;
6665;SDS011;3369;49.906;8.598;2023-01-05T18:20:48;12.77;;;3.72;;
6665;SDS011;3369;49.906;8.598;2023-01-05T18:23:17;13.32;;;4.10;;
6665;SDS011;3369;49.906;8.598;2023-01-05T18:25:43;10.05;;;3.90;;
6665;SDS011;3369;49.906;8.598;2023-01-05T18:28:09;12.10;;;4.03;;
6665;SDS011;3369;49.906;8.598;2023-01-05T18:30:35;13.10;;;4.03;;
6665;SDS011;3369;49.906;8.598;2023-01-05T18:33:04;9.90;;;3.57;;
6665;SDS011;3369;49.906;8.598;2023-01-05T18:35:29;10.93;;;3.90;;
6665;SDS011;3369;49.906;8.598;2023-01-05T18:37:55;13.87;;;4.13;;
6665;SDS011;3369;49.906;8.598;2023-01-05T18:40:25;12.70;;;4.22;;
6665;SDS011;3369;49.906;8.598;2023-01-05T18:42:51;11.90;;;3.70;;
6665;SDS011;3369;49.906;8.598;2023-01-05T18:45:17;9.60;;;3.63;;
6665;SDS011;3369;49.906;8.598;2023-01-05T18:47:43;10.47;;;3.80;;
6665;SDS011;3369;49.906;8.598;2023-01-05T18:50:09;15.35;;;4.03;;
6665;SDS011;3369;49.906;8.598;2023-01-05T18:52:36;15.40;;;4.18;;
6665;SDS011;3369;49.906;8.598;2023-01-05T18:55:02;11.37;;;3.90;;
6665;SDS011;3369;49.906;8.598;2023-01-05T18:57:28;17.65;;;4.38;;